sensor_id;sensor_type;location;lat;lon;timestamp;temperature;humidity
48007;DHT22;33771;48.180;11.400;2023-02-12T00:01:29;2.40;99.90
48007;DHT22;33771;48.180;11.400;2023-02-12T00:03:55;2.40;99.90
48007;DHT22;33771;48.180;11.400;2023-02-12T00:06:21;2.40;99.90
48007;DHT22;33771;48.180;11.400;2023-02-12T00:08:51;2.40;99.90
48007;DHT22;33771;48.180;11.400;2023-02-12T00:11:23;2.40;99.90
48007;DHT22;33771;48.180;11.400;2023-02-12T00:13:49;2.40;99.90
48007;DHT22;33771;48.180;11.400;2023-02-12T00:16:17;2.40;99.90
48007;DHT22;33771;48.180;11.400;2023-02-12T00:18:44;2.40;99.90
48007;DHT22;33771;48.180;11.400;2023-02-12T00:21:10;2.40;99.90
48007;DHT22;33771;48.180;11.400;2023-02-12T00:23:38;2.40;99.90
48007;DHT22;33771;48.180;11.400;2023-02-12T00:26:10;2.40;99.90
48007;DHT22;33771;48.180;11.400;2023-02-12T00:28:36;2.40;99.90
48007;DHT22;33771;48.180;11.400;2023-02-12T00:31:10;2.40;99.90
48007;DHT22;33771;48.180;11.400;2023-02-12T00:33:36;2.40;99.90
48007;DHT22;33771;48.180;11.400;2023-02-12T00:36:02;2.40;99.90
48007;DHT22;33771;48.180;11.400;2023-02-12T00:38:28;2.40;99.90
48007;DHT22;33771;48.180;11.400;2023-02-12T00:40:53;2.40;99.90
48007;DHT22;33771;48.180;11.400;2023-02-12T00:43:19;2.40;99.90
48007;DHT22;33771;48.180;11.400;2023-02-12T00:45:45;2.40;99.90
48007;DHT22;33771;48.180;11.400;2023-02-12T00:48:12;2.40;99.90
48007;DHT22;33771;48.180;11.400;2023-02-12T00:50:38;2.40;99.90
48007;DHT22;33771;48.180;11.400;2023-02-12T00:53:06;2.40;99.90
48007;DHT22;33771;48.180;11.400;2023-02-12T00:55:31;2.40;99.90
48007;DHT22;33771;48.180;11.400;2023-02-12T00:57:57;2.40;99.90
48007;DHT22;33771;48.180;11.400;2023-02-12T01:00:23;2.40;99.90
48007;DHT22;33771;48.180;11.400;2023-02-12T01:02:48;2.40;99.90
48007;DHT22;33771;48.180;11.400;2023-02-12T01:05:14;2.40;99.90
48007;DHT22;33771;48.180;11.400;2023-02-12T01:07:39;2.30;99.90
48007;DHT22;33771;48.180;11.400;2023-02-12T01:10:06;2.30;99.90
48007;DHT22;33771;48.180;11.400;2023-02-12T01:12:32;2.30;99.90
48007;DHT22;33771;48.180;11.400;2023-02-12T01:14:58;2.30;99.90
48007;DHT22;33771;48.180;11.400;2023-02-12T01:17:23;2.30;99.90
48007;DHT22;33771;48.180;11.400;2023-02-12T01:19:49;2.30;99.90
48007;DHT22;33771;48.180;11.400;2023-02-12T01:22:15;2.30;99.90
48007;DHT22;33771;48.180;11.400;2023-02-12T01:24:41;2.30;99.90
48007;DHT22;33771;48.180;11.400;2023-02-12T01:27:07;2.30;99.90
48007;DHT22;33771;48.180;11.400;2023-02-12T01:29:32;2.30;99.90
48007;DHT22;33771;48.180;11.400;2023-02-12T01:31:58;2.30;99.90
48007;DHT22;33771;48.180;11.400;2023-02-12T01:34:23;2.30;99.90
48007;DHT22;33771;48.180;11.400;2023-02-12T01:36:49;2.40;99.90
48007;DHT22;33771;48.180;11.400;2023-02-12T01:39:14;2.30;99.90
48007;DHT22;33771;48.180;11.400;2023-02-12T01:41:43;2.30;99.90
48007;DHT22;33771;48.180;11.400;2023-02-12T01:44:18;2.30;99.90
48007;DHT22;33771;48.180;11.400;2023-02-12T01:46:46;2.30;99.90
48007;DHT22;33771;48.180;11.400;2023-02-12T01:49:17;2.30;99.90
48007;DHT22;33771;48.180;11.400;2023-02-12T01:51:46;2.30;99.90
48007;DHT22;33771;48.180;11.400;2023-02-12T01:54:14;2.30;99.90
48007;DHT22;33771;48.180;11.400;2023-02-12T01:56:41;2.30;99.90
48007;DHT22;33771;48.180;11.400;2023-02-12T01:59:07;2.20;99.90
48007;DHT22;33771;48.180;11.400;2023-02-12T02:01:33;2.20;99.90
48007;DHT22;33771;48.180;11.400;2023-02-12T02:04:09;2.20;99.90
48007;DHT22;33771;48.180;11.400;2023-02-12T02:06:58;2.30;99.90
48007;DHT22;33771;48.180;11.400;2023-02-12T02:09:24;2.30;99.90
48007;DHT22;33771;48.180;11.400;2023-02-12T02:11:50;2.30;99.90
48007;DHT22;33771;48.180;11.400;2023-02-12T02:14:35;2.30;99.90
48007;DHT22;33771;48.180;11.400;2023-02-12T02:20:15;2.30;99.90
48007;DHT22;33771;48.180;11.400;2023-02-12T02:23:01;2.30;99.90
48007;DHT22;33771;48.180;11.400;2023-02-12T02:34:34;2.30;99.90
48007;DHT22;33771;48.180;11.400;2023-02-12T02:40:12;2.20;99.90
48007;DHT22;33771;48.180;11.400;2023-02-12T02:42:58;2.20;99.90
48007;DHT22;33771;48.180;11.400;2023-02-12T02:45:42;2.20;99.90
48007;DHT22;33771;48.180;11.400;2023-02-12T02:48:15;2.20;99.90
48007;DHT22;33771;48.180;11.400;2023-02-12T02:50:46;2.20;99.90
48007;DHT22;33771;48.180;11.400;2023-02-12T02:53:21;2.20;99.90
48007;DHT22;33771;48.180;11.400;2023-02-12T02:55:54;2.20;99.90
48007;DHT22;33771;48.180;11.400;2023-02-12T02:58:38;2.20;99.90
48007;DHT22;33771;48.180;11.400;2023-02-12T03:01:09;2.20;99.90
48007;DHT22;33771;48.180;11.400;2023-02-12T03:06:19;2.20;99.90
48007;DHT22;33771;48.180;11.400;2023-02-12T03:08:55;2.20;99.90
48007;DHT22;33771;48.180;11.400;2023-02-12T03:11:27;2.20;99.90
48007;DHT22;33771;48.180;11.400;2023-02-12T03:16:34;2.20;99.90
48007;DHT22;33771;48.180;11.400;2023-02-12T03:19:10;2.20;99.90
48007;DHT22;33771;48.180;11.400;2023-02-12T03:21:44;2.30;99.90
48007;DHT22;33771;48.180;11.400;2023-02-12T03:24:42;2.30;99.90
48007;DHT22;33771;48.180;11.400;2023-02-12T03:27:15;2.20;99.90
48007;DHT22;33771;48.180;11.400;2023-02-12T03:29:42;2.20;99.90
48007;DHT22;33771;48.180;11.400;2023-02-12T03:37:37;2.20;99.90
48007;DHT22;33771;48.180;11.400;2023-02-12T03:40:34;2.20;99.90
48007;DHT22;33771;48.180;11.400;2023-02-12T03:43:26;2.20;99.90
48007;DHT22;33771;48.180;11.400;2023-02-12T03:45:59;2.20;99.90
48007;DHT22;33771;48.180;11.400;2023-02-12T03:53:46;2.20;99.90
48007;DHT22;33771;48.180;11.400;2023-02-12T03:56:36;2.20;99.90
48007;DHT22;33771;48.180;11.400;2023-02-12T03:58:59;2.20;99.90
48007;DHT22;33771;48.180;11.400;2023-02-12T04:01:26;2.30;99.90
48007;DHT22;33771;48.180;11.400;2023-02-12T04:03:52;2.20;99.90
48007;DHT22;33771;48.180;11.400;2023-02-12T04:06:23;2.20;99.90
48007;DHT22;33771;48.180;11.400;2023-02-12T04:08:50;2.20;99.90
48007;DHT22;33771;48.180;11.400;2023-02-12T04:11:29;2.20;99.90
48007;DHT22;33771;48.180;11.400;2023-02-12T04:14:13;2.20;99.90
48007;DHT22;33771;48.180;11.400;2023-02-12T04:17:05;2.20;99.90
48007;DHT22;33771;48.180;11.400;2023-02-12T04:23:00;2.20;99.90
48007;DHT22;33771;48.180;11.400;2023-02-12T04:36:34;2.20;99.90
48007;DHT22;33771;48.180;11.400;2023-02-12T04:39:07;2.20;99.90
48007;DHT22;33771;48.180;11.400;2023-02-12T04:41:36;2.20;99.90
48007;DHT22;33771;48.180;11.400;2023-02-12T04:44:38;2.20;99.90
48007;DHT22;33771;48.180;11.400;2023-02-12T04:47:04;2.20;99.90
48007;DHT22;33771;48.180;11.400;2023-02-12T04:49:30;2.20;99.90
48007;DHT22;33771;48.180;11.400;2023-02-12T04:51:56;2.20;99.90
48007;DHT22;33771;48.180;11.400;2023-02-12T04:54:22;2.20;99.90
48007;DHT22;33771;48.180;11.400;2023-02-12T04:56:48;2.20;99.90
48007;DHT22;33771;48.180;11.400;2023-02-12T04:59:14;2.20;99.90
48007;DHT22;33771;48.180;11.400;2023-02-12T05:01:41;2.10;99.90
48007;DHT22;33771;48.180;11.400;2023-02-12T05:04:11;2.20;99.90
48007;DHT22;33771;48.180;11.400;2023-02-12T05:06:38;2.10;99.90
48007;DHT22;33771;48.180;11.400;2023-02-12T05:09:05;2.20;99.90
48007;DHT22;33771;48.180;11.400;2023-02-12T05:11:31;2.20;99.90
48007;DHT22;33771;48.180;11.400;2023-02-12T05:13:57;2.20;99.90
48007;DHT22;33771;48.180;11.400;2023-02-12T05:16:23;2.20;99.90
48007;DHT22;33771;48.180;11.400;2023-02-12T05:18:49;2.20;99.90
48007;DHT22;33771;48.180;11.400;2023-02-12T05:21:15;2.20;99.90
48007;DHT22;33771;48.180;11.400;2023-02-12T05:23:41;2.20;99.90
48007;DHT22;33771;48.180;11.400;2023-02-12T05:26:14;2.20;99.90
48007;DHT22;33771;48.180;11.400;2023-02-12T05:28:40;2.10;99.90
48007;DHT22;33771;48.180;11.400;2023-02-12T05:31:08;2.10;99.90
48007;DHT22;33771;48.180;11.400;2023-02-12T05:33:34;2.20;99.90
48007;DHT22;33771;48.180;11.400;2023-02-12T05:36:07;2.20;99.90
48007;DHT22;33771;48.180;11.400;2023-02-12T05:38:33;2.20;99.90
48007;DHT22;33771;48.180;11.400;2023-02-12T05:41:04;2.20;99.90
48007;DHT22;33771;48.180;11.400;2023-02-12T05:43:30;2.20;99.90
48007;DHT22;33771;48.180;11.400;2023-02-12T05:45:58;2.20;99.90
48007;DHT22;33771;48.180;11.400;2023-02-12T05:48:25;2.20;99.90
48007;DHT22;33771;48.180;11.400;2023-02-12T05:50:51;2.20;99.90
48007;DHT22;33771;48.180;11.400;2023-02-12T05:53:16;2.20;99.90
48007;DHT22;33771;48.180;11.400;2023-02-12T05:55:42;2.20;99.90
48007;DHT22;33771;48.180;11.400;2023-02-12T05:58:07;2.20;99.90
48007;DHT22;33771;48.180;11.400;2023-02-12T06:00:33;2.20;99.90
48007;DHT22;33771;48.180;11.400;2023-02-12T06:02:58;2.20;99.90
48007;DHT22;33771;48.180;11.400;2023-02-12T06:05:24;2.20;99.90
48007;DHT22;33771;48.180;11.400;2023-02-12T06:07:49;2.20;99.90
48007;DHT22;33771;48.180;11.400;2023-02-12T06:10:15;2.20;99.90
48007;DHT22;33771;48.180;11.400;2023-02-12T06:12:40;2.20;99.90
48007;DHT22;33771;48.180;11.400;2023-02-12T06:15:06;2.20;99.90
48007;DHT22;33771;48.180;11.400;2023-02-12T06:17:33;2.10;99.90
48007;DHT22;33771;48.180;11.400;2023-02-12T06:19:59;2.20;99.90
48007;DHT22;33771;48.180;11.400;2023-02-12T06:22:24;2.10;99.90
48007;DHT22;33771;48.180;11.400;2023-02-12T06:24:51;2.10;99.90
48007;DHT22;33771;48.180;11.400;2023-02-12T06:27:17;2.10;99.90
48007;DHT22;33771;48.180;11.400;2023-02-12T06:29:42;2.10;99.90
48007;DHT22;33771;48.180;11.400;2023-02-12T06:32:08;2.10;99.90
48007;DHT22;33771;48.180;11.400;2023-02-12T06:34:33;2.10;99.90
48007;DHT22;33771;48.180;11.400;2023-02-12T06:36:59;2.00;99.90
48007;DHT22;33771;48.180;11.400;2023-02-12T06:39:24;2.00;99.90
48007;DHT22;33771;48.180;11.400;2023-02-12T06:41:50;2.00;99.90
48007;DHT22;33771;48.180;11.400;2023-02-12T06:44:15;2.00;99.90
48007;DHT22;33771;48.180;11.400;2023-02-12T06:46:41;2.00;99.90
48007;DHT22;33771;48.180;11.400;2023-02-12T06:49:07;2.00;99.90
48007;DHT22;33771;48.180;11.400;2023-02-12T06:51:32;2.00;99.90
48007;DHT22;33771;48.180;11.400;2023-02-12T06:54:09;2.00;99.90
48007;DHT22;33771;48.180;11.400;2023-02-12T06:56:39;2.00;99.90
48007;DHT22;33771;48.180;11.400;2023-02-12T06:59:04;2.00;99.90
48007;DHT22;33771;48.180;11.400;2023-02-12T07:01:30;2.00;99.90
48007;DHT22;33771;48.180;11.400;2023-02-12T07:03:58;2.10;99.90
48007;DHT22;33771;48.180;11.400;2023-02-12T07:06:26;2.00;99.90
48007;DHT22;33771;48.180;11.400;2023-02-12T07:08:51;2.00;99.90
48007;DHT22;33771;48.180;11.400;2023-02-12T07:11:22;2.10;99.90
48007;DHT22;33771;48.180;11.400;2023-02-12T07:13:48;2.10;99.90
48007;DHT22;33771;48.180;11.400;2023-02-12T07:16:15;2.10;99.90
48007;DHT22;33771;48.180;11.400;2023-02-12T07:18:41;2.10;99.90
48007;DHT22;33771;48.180;11.400;2023-02-12T07:21:08;2.10;99.90
48007;DHT22;33771;48.180;11.400;2023-02-12T07:23:35;2.20;99.90
48007;DHT22;33771;48.180;11.400;2023-02-12T07:26:04;2.20;99.90
48007;DHT22;33771;48.180;11.400;2023-02-12T07:28:30;2.20;99.90
48007;DHT22;33771;48.180;11.400;2023-02-12T07:31:13;2.20;99.90
48007;DHT22;33771;48.180;11.400;2023-02-12T07:33:40;2.30;99.90
48007;DHT22;33771;48.180;11.400;2023-02-12T07:36:11;2.30;99.90
48007;DHT22;33771;48.180;11.400;2023-02-12T07:38:37;2.40;99.90
48007;DHT22;33771;48.180;11.400;2023-02-12T07:41:12;2.40;99.90
48007;DHT22;33771;48.180;11.400;2023-02-12T07:43:39;2.50;99.90
48007;DHT22;33771;48.180;11.400;2023-02-12T07:46:13;2.50;99.90
48007;DHT22;33771;48.180;11.400;2023-02-12T07:48:39;2.60;99.90
48007;DHT22;33771;48.180;11.400;2023-02-12T07:51:06;2.70;99.90
48007;DHT22;33771;48.180;11.400;2023-02-12T07:53:33;2.70;99.90
48007;DHT22;33771;48.180;11.400;2023-02-12T07:58:31;2.90;99.90
48007;DHT22;33771;48.180;11.400;2023-02-12T08:00:56;3.00;99.90
48007;DHT22;33771;48.180;11.400;2023-02-12T08:03:22;3.00;99.90
48007;DHT22;33771;48.180;11.400;2023-02-12T08:05:48;3.10;99.90
48007;DHT22;33771;48.180;11.400;2023-02-12T08:08:13;3.20;99.90
48007;DHT22;33771;48.180;11.400;2023-02-12T08:10:39;3.20;99.90
48007;DHT22;33771;48.180;11.400;2023-02-12T08:13:05;3.20;99.90
48007;DHT22;33771;48.180;11.400;2023-02-12T08:15:30;3.30;99.90
48007;DHT22;33771;48.180;11.400;2023-02-12T08:17:56;3.40;99.90
48007;DHT22;33771;48.180;11.400;2023-02-12T08:20:21;3.40;99.90
48007;DHT22;33771;48.180;11.400;2023-02-12T08:22:47;3.50;99.90
48007;DHT22;33771;48.180;11.400;2023-02-12T08:25:12;3.50;99.90
48007;DHT22;33771;48.180;11.400;2023-02-12T08:27:40;3.60;99.90
48007;DHT22;33771;48.180;11.400;2023-02-12T08:30:08;3.60;99.90
48007;DHT22;33771;48.180;11.400;2023-02-12T08:32:34;3.70;99.90
48007;DHT22;33771;48.180;11.400;2023-02-12T08:35:00;3.80;99.90
48007;DHT22;33771;48.180;11.400;2023-02-12T08:37:25;3.80;99.90
48007;DHT22;33771;48.180;11.400;2023-02-12T08:39:51;3.90;99.90
48007;DHT22;33771;48.180;11.400;2023-02-12T08:42:16;4.00;99.90
48007;DHT22;33771;48.180;11.400;2023-02-12T08:44:42;4.00;99.90
48007;DHT22;33771;48.180;11.400;2023-02-12T08:47:07;4.10;99.90
48007;DHT22;33771;48.180;11.400;2023-02-12T08:49:34;4.20;99.90
48007;DHT22;33771;48.180;11.400;2023-02-12T08:52:00;4.30;99.90
48007;DHT22;33771;48.180;11.400;2023-02-12T08:54:28;4.30;99.90
48007;DHT22;33771;48.180;11.400;2023-02-12T08:56:59;4.40;99.90
48007;DHT22;33771;48.180;11.400;2023-02-12T08:59:25;4.50;99.90
48007;DHT22;33771;48.180;11.400;2023-02-12T09:01:52;4.60;99.90
48007;DHT22;33771;48.180;11.400;2023-02-12T09:04:22;4.60;99.90
48007;DHT22;33771;48.180;11.400;2023-02-12T09:06:49;4.70;99.90
48007;DHT22;33771;48.180;11.400;2023-02-12T09:09:15;4.80;99.90
48007;DHT22;33771;48.180;11.400;2023-02-12T09:11:41;4.90;99.90
48007;DHT22;33771;48.180;11.400;2023-02-12T09:14:10;5.00;99.90
48007;DHT22;33771;48.180;11.400;2023-02-12T09:16:36;5.00;99.90
48007;DHT22;33771;48.180;11.400;2023-02-12T09:19:04;5.10;99.90
48007;DHT22;33771;48.180;11.400;2023-02-12T09:21:29;5.10;99.90
48007;DHT22;33771;48.180;11.400;2023-02-12T09:23:55;5.20;99.90
48007;DHT22;33771;48.180;11.400;2023-02-12T09:26:24;5.20;99.90
48007;DHT22;33771;48.180;11.400;2023-02-12T09:28:53;5.30;99.90
48007;DHT22;33771;48.180;11.400;2023-02-12T09:31:22;5.30;99.90
48007;DHT22;33771;48.180;11.400;2023-02-12T09:34:00;5.20;99.90
48007;DHT22;33771;48.180;11.400;2023-02-12T09:36:27;5.10;99.90
48007;DHT22;33771;48.180;11.400;2023-02-12T09:38:53;5.20;99.90
48007;DHT22;33771;48.180;11.400;2023-02-12T09:47:25;5.40;99.90
48007;DHT22;33771;48.180;11.400;2023-02-12T09:49:57;5.50;99.90
48007;DHT22;33771;48.180;11.400;2023-02-12T09:52:27;5.60;99.90
48007;DHT22;33771;48.180;11.400;2023-02-12T09:54:53;5.60;99.90
48007;DHT22;33771;48.180;11.400;2023-02-12T09:57:31;5.60;99.90
48007;DHT22;33771;48.180;11.400;2023-02-12T10:02:43;5.70;99.90
48007;DHT22;33771;48.180;11.400;2023-02-12T10:05:18;5.70;99.90
48007;DHT22;33771;48.180;11.400;2023-02-12T10:10:52;5.90;99.90
48007;DHT22;33771;48.180;11.400;2023-02-12T10:13:40;6.00;99.90
48007;DHT22;33771;48.180;11.400;2023-02-12T10:16:35;6.10;99.90
48007;DHT22;33771;48.180;11.400;2023-02-12T10:21:55;6.10;99.90
48007;DHT22;33771;48.180;11.400;2023-02-12T10:24:32;6.10;99.90
48007;DHT22;33771;48.180;11.400;2023-02-12T10:27:08;6.20;99.90
48007;DHT22;33771;48.180;11.400;2023-02-12T10:29:38;6.30;99.90
48007;DHT22;33771;48.180;11.400;2023-02-12T10:34:50;6.50;99.90
48007;DHT22;33771;48.180;11.400;2023-02-12T10:37:49;6.50;99.90
48007;DHT22;33771;48.180;11.400;2023-02-12T10:40:24;6.60;99.90
48007;DHT22;33771;48.180;11.400;2023-02-12T10:42:55;6.60;99.90
48007;DHT22;33771;48.180;11.400;2023-02-12T10:53:03;7.00;99.90
48007;DHT22;33771;48.180;11.400;2023-02-12T10:55:30;7.00;99.90
48007;DHT22;33771;48.180;11.400;2023-02-12T10:57:58;7.10;99.90
48007;DHT22;33771;48.180;11.400;2023-02-12T11:00:34;7.20;99.90
48007;DHT22;33771;48.180;11.400;2023-02-12T11:05:42;7.20;99.90
48007;DHT22;33771;48.180;11.400;2023-02-12T11:10:54;7.30;99.90
48007;DHT22;33771;48.180;11.400;2023-02-12T11:13:27;7.30;99.90
48007;DHT22;33771;48.180;11.400;2023-02-12T11:15:53;7.30;99.90
48007;DHT22;33771;48.180;11.400;2023-02-12T11:18:22;7.20;99.90
48007;DHT22;33771;48.180;11.400;2023-02-12T11:21:06;7.20;99.90
48007;DHT22;33771;48.180;11.400;2023-02-12T11:23:43;7.20;99.90
48007;DHT22;33771;48.180;11.400;2023-02-12T11:28:57;7.20;99.90
48007;DHT22;33771;48.180;11.400;2023-02-12T11:31:31;7.30;99.90
48007;DHT22;33771;48.180;11.400;2023-02-12T11:34:15;7.20;99.90
48007;DHT22;33771;48.180;11.400;2023-02-12T11:36:44;7.20;99.90
48007;DHT22;33771;48.180;11.400;2023-02-12T11:39:33;7.30;99.90
48007;DHT22;33771;48.180;11.400;2023-02-12T11:42:26;7.40;99.90
48007;DHT22;33771;48.180;11.400;2023-02-12T11:44:55;7.60;99.90
48007;DHT22;33771;48.180;11.400;2023-02-12T11:47:28;7.70;99.90
48007;DHT22;33771;48.180;11.400;2023-02-12T11:50:06;7.70;99.90
48007;DHT22;33771;48.180;11.400;2023-02-12T11:52:34;7.80;99.90
48007;DHT22;33771;48.180;11.400;2023-02-12T11:55:16;8.00;99.90
48007;DHT22;33771;48.180;11.400;2023-02-12T11:57:44;8.10;99.90
48007;DHT22;33771;48.180;11.400;2023-02-12T12:00:27;8.40;99.90
48007;DHT22;33771;48.180;11.400;2023-02-12T12:05:34;9.00;99.90
48007;DHT22;33771;48.180;11.400;2023-02-12T12:08:05;9.20;99.90
48007;DHT22;33771;48.180;11.400;2023-02-12T12:10:43;9.40;99.90
48007;DHT22;33771;48.180;11.400;2023-02-12T12:13:22;9.50;99.90
48007;DHT22;33771;48.180;11.400;2023-02-12T12:15:52;9.50;99.90
48007;DHT22;33771;48.180;11.400;2023-02-12T12:18:53;9.70;99.90
48007;DHT22;33771;48.180;11.400;2023-02-12T12:24:22;9.90;99.90
48007;DHT22;33771;48.180;11.400;2023-02-12T12:26:55;10.10;99.90
48007;DHT22;33771;48.180;11.400;2023-02-12T12:32:02;10.10;99.90
48007;DHT22;33771;48.180;11.400;2023-02-12T12:34:29;10.10;99.90
48007;DHT22;33771;48.180;11.400;2023-02-12T12:40:21;10.00;99.90
48007;DHT22;33771;48.180;11.400;2023-02-12T12:43:13;9.90;99.90
48007;DHT22;33771;48.180;11.400;2023-02-12T12:46:06;9.90;99.90
48007;DHT22;33771;48.180;11.400;2023-02-12T12:54:24;9.50;99.90
48007;DHT22;33771;48.180;11.400;2023-02-12T12:57:36;9.50;99.90
48007;DHT22;33771;48.180;11.400;2023-02-12T13:00:20;9.50;99.90
48007;DHT22;33771;48.180;11.400;2023-02-12T13:08:38;9.60;99.90
48007;DHT22;33771;48.180;11.400;2023-02-12T13:11:31;9.50;99.90
48007;DHT22;33771;48.180;11.400;2023-02-12T13:14:24;9.60;99.90
48007;DHT22;33771;48.180;11.400;2023-02-12T13:17:04;9.70;99.90
48007;DHT22;33771;48.180;11.400;2023-02-12T13:22:39;9.70;99.90
48007;DHT22;33771;48.180;11.400;2023-02-12T13:25:20;9.60;99.90
48007;DHT22;33771;48.180;11.400;2023-02-12T13:27:47;9.50;99.90
48007;DHT22;33771;48.180;11.400;2023-02-12T13:32:45;9.30;99.90
48007;DHT22;33771;48.180;11.400;2023-02-12T13:35:18;9.20;99.90
48007;DHT22;33771;48.180;11.400;2023-02-12T13:37:47;9.10;99.90
48007;DHT22;33771;48.180;11.400;2023-02-12T13:40:27;9.00;99.90
48007;DHT22;33771;48.180;11.400;2023-02-12T13:45:34;9.00;99.90
48007;DHT22;33771;48.180;11.400;2023-02-12T13:51:10;9.00;99.90
48007;DHT22;33771;48.180;11.400;2023-02-12T13:56:46;8.90;99.90
48007;DHT22;33771;48.180;11.400;2023-02-12T14:01:58;8.80;99.90
48007;DHT22;33771;48.180;11.400;2023-02-12T14:07:07;8.90;99.90
48007;DHT22;33771;48.180;11.400;2023-02-12T14:09:40;9.00;99.90
48007;DHT22;33771;48.180;11.400;2023-02-12T14:14:47;8.90;99.90
48007;DHT22;33771;48.180;11.400;2023-02-12T14:20:25;8.70;99.90
48007;DHT22;33771;48.180;11.400;2023-02-12T14:30:46;8.50;99.90
48007;DHT22;33771;48.180;11.400;2023-02-12T14:33:31;8.60;99.90
48007;DHT22;33771;48.180;11.400;2023-02-12T14:39:25;8.40;99.90
48007;DHT22;33771;48.180;11.400;2023-02-12T14:44:46;8.30;99.90
48007;DHT22;33771;48.180;11.400;2023-02-12T14:50:04;8.10;99.90
48007;DHT22;33771;48.180;11.400;2023-02-12T14:52:31;7.90;99.90
48007;DHT22;33771;48.180;11.400;2023-02-12T14:55:07;7.90;99.90
48007;DHT22;33771;48.180;11.400;2023-02-12T14:57:42;7.80;99.90
48007;DHT22;33771;48.180;11.400;2023-02-12T15:02:46;7.50;99.90
48007;DHT22;33771;48.180;11.400;2023-02-12T15:05:27;7.50;99.90
48007;DHT22;33771;48.180;11.400;2023-02-12T15:08:05;7.50;99.90
48007;DHT22;33771;48.180;11.400;2023-02-12T15:10:36;7.50;99.90
48007;DHT22;33771;48.180;11.400;2023-02-12T15:16:12;7.40;99.90
48007;DHT22;33771;48.180;11.400;2023-02-12T15:18:55;7.40;99.90
48007;DHT22;33771;48.180;11.400;2023-02-12T15:21:25;7.40;99.90
48007;DHT22;33771;48.180;11.400;2023-02-12T15:26:28;7.30;99.90
48007;DHT22;33771;48.180;11.400;2023-02-12T15:28:55;7.20;99.90
48007;DHT22;33771;48.180;11.400;2023-02-12T15:31:25;7.20;99.90
48007;DHT22;33771;48.180;11.400;2023-02-12T15:33:52;7.20;99.90
48007;DHT22;33771;48.180;11.400;2023-02-12T15:36:22;7.10;99.90
48007;DHT22;33771;48.180;11.400;2023-02-12T15:39:13;7.10;99.90
48007;DHT22;33771;48.180;11.400;2023-02-12T15:41:41;7.00;99.90
48007;DHT22;33771;48.180;11.400;2023-02-12T15:44:30;6.90;99.90
48007;DHT22;33771;48.180;11.400;2023-02-12T15:49:29;6.80;99.90
48007;DHT22;33771;48.180;11.400;2023-02-12T15:51:55;6.70;99.90
48007;DHT22;33771;48.180;11.400;2023-02-12T15:54:22;6.70;99.90
48007;DHT22;33771;48.180;11.400;2023-02-12T15:56:48;6.60;99.90
48007;DHT22;33771;48.180;11.400;2023-02-12T15:59:20;6.40;99.90
48007;DHT22;33771;48.180;11.400;2023-02-12T16:02:01;6.40;99.90
48007;DHT22;33771;48.180;11.400;2023-02-12T16:04:32;6.30;99.90
48007;DHT22;33771;48.180;11.400;2023-02-12T16:06:59;6.30;99.90
48007;DHT22;33771;48.180;11.400;2023-02-12T16:09:29;6.20;99.90
48007;DHT22;33771;48.180;11.400;2023-02-12T16:11:59;6.10;99.90
48007;DHT22;33771;48.180;11.400;2023-02-12T16:14:35;6.10;99.90
48007;DHT22;33771;48.180;11.400;2023-02-12T16:19:57;5.90;99.90
48007;DHT22;33771;48.180;11.400;2023-02-12T16:22:46;5.80;99.90
48007;DHT22;33771;48.180;11.400;2023-02-12T16:25:21;5.70;99.90
48007;DHT22;33771;48.180;11.400;2023-02-12T16:28:07;5.60;99.90
48007;DHT22;33771;48.180;11.400;2023-02-12T16:30:41;5.50;99.90
48007;DHT22;33771;48.180;11.400;2023-02-12T16:33:34;5.50;99.90
48007;DHT22;33771;48.180;11.400;2023-02-12T16:36:05;5.50;99.90
48007;DHT22;33771;48.180;11.400;2023-02-12T16:38:52;5.40;99.90
48007;DHT22;33771;48.180;11.400;2023-02-12T16:43:49;5.20;99.90
48007;DHT22;33771;48.180;11.400;2023-02-12T16:46:16;5.10;99.90
48007;DHT22;33771;48.180;11.400;2023-02-12T16:48:46;5.10;99.90
48007;DHT22;33771;48.180;11.400;2023-02-12T16:51:25;4.90;99.90
48007;DHT22;33771;48.180;11.400;2023-02-12T16:53:53;4.90;99.90
48007;DHT22;33771;48.180;11.400;2023-02-12T16:56:34;4.80;99.90
48007;DHT22;33771;48.180;11.400;2023-02-12T16:59:05;4.70;99.90
48007;DHT22;33771;48.180;11.400;2023-02-12T17:01:34;4.60;99.90
48007;DHT22;33771;48.180;11.400;2023-02-12T17:04:04;4.60;99.90
48007;DHT22;33771;48.180;11.400;2023-02-12T17:06:33;4.50;99.90
48007;DHT22;33771;48.180;11.400;2023-02-12T17:08:59;4.40;99.90
48007;DHT22;33771;48.180;11.400;2023-02-12T17:11:26;4.40;99.90
48007;DHT22;33771;48.180;11.400;2023-02-12T17:13:53;4.30;99.90
48007;DHT22;33771;48.180;11.400;2023-02-12T17:16:20;4.30;99.90
48007;DHT22;33771;48.180;11.400;2023-02-12T17:18:45;4.20;99.90
48007;DHT22;33771;48.180;11.400;2023-02-12T17:21:21;4.10;99.90
48007;DHT22;33771;48.180;11.400;2023-02-12T17:23:48;4.10;99.90
48007;DHT22;33771;48.180;11.400;2023-02-12T17:26:13;4.10;99.90
48007;DHT22;33771;48.180;11.400;2023-02-12T17:28:39;4.00;99.90
48007;DHT22;33771;48.180;11.400;2023-02-12T17:31:08;4.00;99.90
48007;DHT22;33771;48.180;11.400;2023-02-12T17:33:34;3.90;99.90
48007;DHT22;33771;48.180;11.400;2023-02-12T17:35:59;3.90;99.90
48007;DHT22;33771;48.180;11.400;2023-02-12T17:38:27;3.90;99.90
48007;DHT22;33771;48.180;11.400;2023-02-12T17:40:53;3.80;99.90
48007;DHT22;33771;48.180;11.400;2023-02-12T17:43:19;3.80;99.90
48007;DHT22;33771;48.180;11.400;2023-02-12T17:45:44;3.70;99.90
48007;DHT22;33771;48.180;11.400;2023-02-12T17:48:11;3.70;99.90
48007;DHT22;33771;48.180;11.400;2023-02-12T17:50:37;3.60;99.90
48007;DHT22;33771;48.180;11.400;2023-02-12T17:53:03;3.60;99.90
48007;DHT22;33771;48.180;11.400;2023-02-12T17:55:29;3.60;99.90
48007;DHT22;33771;48.180;11.400;2023-02-12T17:57:55;3.50;99.90
48007;DHT22;33771;48.180;11.400;2023-02-12T18:00:21;3.50;99.90
48007;DHT22;33771;48.180;11.400;2023-02-12T18:02:47;3.40;99.90
48007;DHT22;33771;48.180;11.400;2023-02-12T18:05:14;3.40;99.90
48007;DHT22;33771;48.180;11.400;2023-02-12T18:07:39;3.30;99.90
48007;DHT22;33771;48.180;11.400;2023-02-12T18:10:06;3.30;99.90
48007;DHT22;33771;48.180;11.400;2023-02-12T18:12:33;3.30;99.90
48007;DHT22;33771;48.180;11.400;2023-02-12T18:15:00;3.20;99.90
48007;DHT22;33771;48.180;11.400;2023-02-12T18:17:26;3.20;99.90
48007;DHT22;33771;48.180;11.400;2023-02-12T18:19:52;3.10;99.90
48007;DHT22;33771;48.180;11.400;2023-02-12T18:22:18;3.10;99.90
48007;DHT22;33771;48.180;11.400;2023-02-12T18:24:44;3.10;99.90
48007;DHT22;33771;48.180;11.400;2023-02-12T18:27:14;3.00;99.90
48007;DHT22;33771;48.180;11.400;2023-02-12T18:29:39;3.00;99.90
48007;DHT22;33771;48.180;11.400;2023-02-12T18:32:05;3.00;99.90
48007;DHT22;33771;48.180;11.400;2023-02-12T18:34:32;2.90;99.90